Terminal Aerodrome Forecast
Issued by NWS Shreveport, LA

Home | Current Version | Previous Version | Text Only | Print | Product List | Glossary On
Versions: 1 2 3 4 5 6 7 8 9 10 11 12 13 14 15 16 17 18 19 20 21
000
FTUS44 KSHV 161722
TAFSHV
TAF
KSHV 161722Z 1618/1718 17013KT P6SM VCSH OVC010
     FM162000 19012KT P6SM VCSH BKN015
     FM170000 22007KT P6SM VCSH BKN015
     FM170400 30006KT P6SM VCSH BKN015
     FM170600 30006KT P6SM VCSH OVC010
     FM171200 34006KT P6SM VCTS OVC020CB
     FM171600 35006KT P6SM OVC015=

USA.gov is the U.S. government's official web portal to all federal, state and local government web resources and services.